Strathmere, NJ (08248)

10:55 AM EST on February 14, 2016 (GMT -0500)
Upper Township, Cape May County | | Change Station
CLOSE
Current Station
Personal Weather Station
Location: Seaville, NJ
Elevation: 20 ft
Nearby Weather Stations

Elev 20 ft 39.20 °N, 74.71 °W | Updated 1 second ago

Clear
Clear
16.7 °F
Feels Like 17 °F
N
3.0
Wind Variable Wind from WNW
Gusts 10.0 mph

Today
High -- | Low -- °F
--% Chance of Precip.
Yesterday
High -- | Low -- °F
Precip. -- in
Pressure 30.54 in
Visibility 10.0 miles
Clouds Clear
Windchill 17 °F
Dew Point -3 °F
Humidity 41%
Rainfall 0.00 in
Snow Depth Not available.
6:52 AM 5:34 PM
Waxing Crescent, 43% visible
METAR KWWD 141535Z AUTO 34011G18KT 10SM CLR M09/M22 A3054 RMK AO1
Pressure 30.54 in
Visibility 10.0 miles
Clouds Clear
Windchill 17 °F
Dew Point -3 °F
Humidity 41%
Rainfall 0.00 in
Snow Depth Not available.
6:52 AM 5:34 PM
Waxing Crescent, 43% visible
METAR KWWD 141535Z AUTO 34011G18KT 10SM CLR M09/M22 A3054 RMK AO1

10-Day Weather Forecast

Almanac

Astronomy

Feb. 14, 2016 Rise Set
Actual Time
Civil Twilight
Nautical Twilight
Astronomical Twilight
Moon
Length of Visible Light
Length of Day
Tomorrow will be .
, % of the Moon is Illuminated

Today's Extremes

State Highs State Lows

Community

WunderPhotos

Upload Photos

1,892,802 photos uploaded!

WunderBlog® & News

Nearby

Air Quality

  Air Quality AQ Index Pollutant
Not available.

Snow Depth

Station Depth Elevation

Earthquake Activity

City Distance Mag. Time & Date
Minimum magnitude displayed is 2.5.

Coastal Water Temperatures

Place Temperature

Stations

Nearby Weather Stations

Station Location Temp. Windchill Dew Point Humidity Wind Precip. Elev Updated Type
                   

Watches & Warnings

There are currently no watches in effect.